createdAt,value
2023-02-15T00:01:40.277Z,80.79
2023-02-15T00:04:08.019Z,81.01
2023-02-15T00:06:35.006Z,80.90
2023-02-15T00:09:02.536Z,80.93
2023-02-15T00:11:41.295Z,80.81
2023-02-15T00:14:13.634Z,80.67
2023-02-15T00:16:41.604Z,80.94
2023-02-15T00:19:09.127Z,80.90
2023-02-15T00:21:36.752Z,80.76
2023-02-15T00:24:05.133Z,80.97
2023-02-15T00:26:31.779Z,80.86
2023-02-15T00:29:01.848Z,81.11
2023-02-15T00:31:31.452Z,81.56
2023-02-15T00:34:16.279Z,81.71
2023-02-15T00:36:43.278Z,82.30
2023-02-15T00:39:09.976Z,81.79
2023-02-15T00:41:36.794Z,82.14
2023-02-15T00:44:03.383Z,82.50
2023-02-15T00:46:29.886Z,82.62
2023-02-15T00:48:56.965Z,82.62
2023-02-15T00:51:23.517Z,82.59
2023-02-15T00:53:50.117Z,82.90
2023-02-15T00:56:16.884Z,82.90
2023-02-15T00:58:43.396Z,83.07
2023-02-15T01:01:12.633Z,83.31
2023-02-15T01:03:39.994Z,83.27
2023-02-15T01:06:06.433Z,83.27
2023-02-15T01:08:32.887Z,83.15
2023-02-15T01:11:11.204Z,83.13
2023-02-15T01:13:38.023Z,83.16
2023-02-15T01:16:05.562Z,82.78
2023-02-15T01:18:32.716Z,82.60
2023-02-15T01:20:59.226Z,82.40
2023-02-15T01:23:25.732Z,82.68
2023-02-15T01:25:52.165Z,82.68
2023-02-15T01:28:18.551Z,82.72
2023-02-15T01:30:44.994Z,82.53
2023-02-15T01:33:18.371Z,82.45
2023-02-15T01:35:46.869Z,82.91
2023-02-15T01:38:15.294Z,83.05
2023-02-15T01:40:42.156Z,83.25
2023-02-15T01:43:12.145Z,83.07
2023-02-15T01:45:38.976Z,83.46
2023-02-15T01:48:17.484Z,83.41
2023-02-15T01:50:53.558Z,83.15
2023-02-15T01:53:35.411Z,83.03
2023-02-15T01:56:10.716Z,83.37
2023-02-15T01:58:37.755Z,83.67
2023-02-15T02:01:05.575Z,83.86
2023-02-15T02:03:45.794Z,84.10
2023-02-15T02:06:12.657Z,83.84
2023-02-15T02:08:39.080Z,83.70
2023-02-15T02:11:11.770Z,83.91
2023-02-15T02:13:39.026Z,84.11
2023-02-15T02:16:09.496Z,83.87
2023-02-15T02:18:44.866Z,84.22
2023-02-15T02:21:25.846Z,83.93
2023-02-15T02:24:04.207Z,83.82
2023-02-15T02:26:48.908Z,83.65
2023-02-15T02:29:52.699Z,84.12
2023-02-15T02:32:37.988Z,84.39
2023-02-15T02:35:25.599Z,84.35
2023-02-15T02:38:11.824Z,84.50
2023-02-15T02:40:54.913Z,84.86
2023-02-15T02:43:32.973Z,85.09
2023-02-15T02:46:07.011Z,85.50
2023-02-15T02:48:35.362Z,85.79
2023-02-15T02:51:01.805Z,85.95
2023-02-15T02:53:31.084Z,85.70
2023-02-15T02:56:04.315Z,86.16
2023-02-15T02:58:40.058Z,85.68
2023-02-15T03:01:15.893Z,85.69
2023-02-15T03:03:46.169Z,86.22
2023-02-15T03:06:31.518Z,85.97
2023-02-15T03:09:15.102Z,85.58
2023-02-15T03:11:44.780Z,85.90
2023-02-15T03:14:13.417Z,85.68
2023-02-15T03:16:42.808Z,85.35
2023-02-15T03:19:28.450Z,85.48
2023-02-15T03:22:26.902Z,85.50
2023-02-15T03:25:16.395Z,85.72
2023-02-15T03:28:06.251Z,86.08
2023-02-15T03:30:34.689Z,86.03
2023-02-15T03:33:03.769Z,85.95
2023-02-15T03:35:40.185Z,86.10
2023-02-15T03:38:09.960Z,86.56
2023-02-15T03:41:02.322Z,86.46
2023-02-15T03:43:28.660Z,86.75
2023-02-15T03:46:01.124Z,86.66
2023-02-15T03:48:32.466Z,86.17
2023-02-15T03:51:24.798Z,86.22
2023-02-15T03:53:52.710Z,86.57
2023-02-15T03:56:19.111Z,86.38
2023-02-15T03:59:04.235Z,86.83
2023-02-15T04:01:57.452Z,87.02
2023-02-15T04:04:29.235Z,86.68
2023-02-15T04:06:55.668Z,86.95
2023-02-15T04:09:41.083Z,86.48
2023-02-15T04:12:07.670Z,86.33
2023-02-15T04:14:52.710Z,85.86
2023-02-15T04:17:19.068Z,85.92
2023-02-15T04:20:04.002Z,86.27
2023-02-15T04:22:49.029Z,86.23
2023-02-15T04:25:15.591Z,86.65
2023-02-15T04:27:46.164Z,86.73
2023-02-15T04:30:14.477Z,86.92
2023-02-15T04:32:40.977Z,86.65
2023-02-15T04:35:08.143Z,87.04
2023-02-15T04:37:35.111Z,86.68
2023-02-15T04:40:01.756Z,86.62
2023-02-15T04:42:29.311Z,86.72
2023-02-15T04:44:55.630Z,86.33
2023-02-15T04:47:22.722Z,86.42
2023-02-15T04:49:49.311Z,86.98
2023-02-15T04:52:15.971Z,87.27
2023-02-15T04:54:42.291Z,87.17
2023-02-15T04:57:08.702Z,87.44
2023-02-15T04:59:35.313Z,87.66
2023-02-15T05:02:01.828Z,87.74
2023-02-15T05:04:28.241Z,87.49
2023-02-15T05:06:54.623Z,87.25
2023-02-15T05:09:20.990Z,87.51
2023-02-15T05:11:47.401Z,87.62
2023-02-15T05:14:13.887Z,87.51
2023-02-15T05:16:40.569Z,87.74
2023-02-15T05:19:07.298Z,87.69
2023-02-15T05:21:34.302Z,87.20
2023-02-15T05:24:00.699Z,87.65
2023-02-15T05:26:45.901Z,87.34
2023-02-15T05:29:12.451Z,87.30
2023-02-15T05:31:39.232Z,87.69
2023-02-15T05:34:05.658Z,87.76
2023-02-15T05:36:31.995Z,87.94
2023-02-15T05:38:58.440Z,88.07
2023-02-15T05:41:26.473Z,87.88
2023-02-15T05:43:53.107Z,88.10
2023-02-15T05:46:19.528Z,87.69
2023-02-15T05:48:46.043Z,87.29
2023-02-15T05:51:14.895Z,87.95
2023-02-15T05:53:41.747Z,87.75
2023-02-15T05:56:12.868Z,87.61
2023-02-15T05:58:41.435Z,88.06
2023-02-15T06:01:12.716Z,87.83
2023-02-15T06:03:39.527Z,87.49
2023-02-15T06:06:07.335Z,88.01
2023-02-15T06:08:35.523Z,88.18
2023-02-15T06:11:02.094Z,88.35
2023-02-15T06:13:29.009Z,88.66
2023-02-15T06:15:55.474Z,88.60
2023-02-15T06:18:22.007Z,88.56
2023-02-15T06:20:49.371Z,88.97
2023-02-15T06:23:16.100Z,88.77
2023-02-15T06:25:42.543Z,89.46
2023-02-15T06:28:08.861Z,89.03
2023-02-15T06:30:35.275Z,89.21
2023-02-15T06:33:01.727Z,89.16
2023-02-15T06:35:28.243Z,89.80
2023-02-15T06:37:54.744Z,89.27
2023-02-15T06:40:21.195Z,89.33
2023-02-15T06:42:47.772Z,89.38
2023-02-15T06:45:14.476Z,89.57
2023-02-15T06:47:41.226Z,89.77
2023-02-15T06:50:08.662Z,89.42
2023-02-15T06:52:35.294Z,89.66
2023-02-15T06:55:01.983Z,90.02
2023-02-15T06:57:28.548Z,89.92
2023-02-15T06:59:55.024Z,90.49
2023-02-15T07:02:21.406Z,89.99
2023-02-15T07:04:47.799Z,89.97
2023-02-15T07:07:14.703Z,89.89
2023-02-15T07:09:41.113Z,89.77
2023-02-15T07:12:27.232Z,89.80
2023-02-15T07:14:53.666Z,90.07
2023-02-15T07:17:36.448Z,90.15
2023-02-15T07:20:09.946Z,90.50
2023-02-15T07:22:37.205Z,90.11
2023-02-15T07:25:09.253Z,89.30
2023-02-15T07:27:36.046Z,88.93
2023-02-15T07:30:02.622Z,89.22
2023-02-15T07:32:33.410Z,88.97
2023-02-15T07:35:00.615Z,88.62
2023-02-15T07:37:27.768Z,88.30
2023-02-15T07:39:54.206Z,88.56
2023-02-15T07:42:22.112Z,88.21
2023-02-15T07:44:48.770Z,87.49
2023-02-15T07:47:15.235Z,87.39
2023-02-15T07:49:41.622Z,87.45
2023-02-15T07:52:08.223Z,87.44
2023-02-15T07:54:34.588Z,87.32
2023-02-15T07:57:01.846Z,87.22
2023-02-15T07:59:28.492Z,87.23
2023-02-15T08:01:57.178Z,87.18
2023-02-15T08:04:24.680Z,86.89
2023-02-15T08:06:54.319Z,86.81
2023-02-15T08:09:21.008Z,86.68
2023-02-15T08:11:48.256Z,86.44
2023-02-15T08:14:20.317Z,86.58
2023-02-15T08:16:57.032Z,86.29
2023-02-15T08:19:32.689Z,86.02
2023-02-15T08:22:05.595Z,86.03
2023-02-15T08:24:34.503Z,85.69
2023-02-15T08:27:06.047Z,85.20
2023-02-15T08:29:33.362Z,84.61
2023-02-15T08:32:05.856Z,84.10
2023-02-15T08:34:35.476Z,83.85
2023-02-15T08:37:02.149Z,83.61
2023-02-15T08:39:29.637Z,83.25
2023-02-15T08:41:56.021Z,82.63
2023-02-15T08:44:23.371Z,82.44
2023-02-15T08:46:50.932Z,82.17
2023-02-15T08:49:22.095Z,81.56
2023-02-15T08:51:49.833Z,80.90
2023-02-15T08:54:18.475Z,80.50
2023-02-15T08:56:45.685Z,80.00
2023-02-15T08:59:15.499Z,79.59
2023-02-15T09:01:41.962Z,79.71
2023-02-15T09:04:11.939Z,78.80
2023-02-15T09:06:40.203Z,78.57
2023-02-15T09:09:08.328Z,77.97
2023-02-15T09:11:37.600Z,77.47
2023-02-15T09:14:15.239Z,77.73
2023-02-15T09:16:45.702Z,77.04
2023-02-15T09:19:12.544Z,76.59
2023-02-15T09:21:39.567Z,76.20
2023-02-15T09:24:11.919Z,76.26
2023-02-15T09:26:44.055Z,76.10
2023-02-15T09:29:12.244Z,74.69
2023-02-15T09:31:45.114Z,74.39
2023-02-15T09:34:13.385Z,74.01
2023-02-15T09:36:41.685Z,73.98
2023-02-15T09:39:15.644Z,73.02
2023-02-15T09:42:35.781Z,72.88
2023-02-15T09:45:28.968Z,72.41
2023-02-15T09:48:13.399Z,71.84
2023-02-15T09:51:09.717Z,71.25
2023-02-15T09:54:01.831Z,70.79
2023-02-15T09:56:46.123Z,70.30
2023-02-15T09:59:20.741Z,70.37
2023-02-15T10:01:55.129Z,69.83
2023-02-15T10:04:44.316Z,69.68
2023-02-15T10:07:16.469Z,69.58
2023-02-15T10:09:51.902Z,69.21
2023-02-15T10:12:40.200Z,68.88
2023-02-15T10:15:25.458Z,68.80
2023-02-15T10:18:24.775Z,68.16
2023-02-15T10:21:28.531Z,67.89
2023-02-15T10:24:06.625Z,67.36
2023-02-15T10:26:46.229Z,67.35
2023-02-15T10:29:35.534Z,66.96
2023-02-15T10:32:17.785Z,66.74
2023-02-15T10:34:57.329Z,66.15
2023-02-15T10:38:06.919Z,66.35
2023-02-15T10:41:00.656Z,65.61
2023-02-15T10:43:46.712Z,64.87
2023-02-15T10:46:37.395Z,64.72
2023-02-15T10:49:06.784Z,64.87
2023-02-15T10:51:36.465Z,65.33
2023-02-15T10:54:21.624Z,64.81
2023-02-15T10:57:04.954Z,64.38
2023-02-15T10:59:42.090Z,63.98
2023-02-15T11:02:11.476Z,64.25
2023-02-15T11:04:44.090Z,63.89
2023-02-15T11:07:23.059Z,64.04
2023-02-15T11:10:01.252Z,63.30
2023-02-15T11:12:32.370Z,63.44
2023-02-15T11:15:36.670Z,62.81
2023-02-15T11:18:12.442Z,62.87
2023-02-15T11:20:52.395Z,62.35
2023-02-15T11:23:19.504Z,62.26
2023-02-15T11:26:07.898Z,61.83
2023-02-15T11:28:40.045Z,61.81
2023-02-15T11:31:22.678Z,61.80
2023-02-15T11:33:55.503Z,61.68
2023-02-15T11:36:38.719Z,61.49
2023-02-15T11:39:15.355Z,60.66
2023-02-15T11:41:47.603Z,60.31
2023-02-15T11:44:24.592Z,60.36
2023-02-15T11:46:51.134Z,59.95
2023-02-15T11:49:30.027Z,60.01
2023-02-15T11:51:57.767Z,59.70
2023-02-15T11:54:30.161Z,60.10
2023-02-15T11:57:04.108Z,59.60
2023-02-15T11:59:38.466Z,58.54
2023-02-15T12:02:17.417Z,58.69
2023-02-15T12:04:50.390Z,58.27
2023-02-15T12:07:26.621Z,58.37
2023-02-15T12:10:01.489Z,58.16
2023-02-15T12:12:30.867Z,57.93
2023-02-15T12:15:02.576Z,57.72
2023-02-15T12:17:32.613Z,57.49
2023-02-15T12:20:08.101Z,57.30
2023-02-15T12:22:37.830Z,57.06
2023-02-15T12:25:23.013Z,56.99
2023-02-15T12:27:50.657Z,57.00
2023-02-15T12:30:24.083Z,56.75
2023-02-15T12:32:55.487Z,55.66
2023-02-15T12:35:32.728Z,55.27
2023-02-15T12:38:19.287Z,55.13
2023-02-15T12:40:59.025Z,55.02
2023-02-15T12:43:33.232Z,54.40
2023-02-15T12:46:23.380Z,53.62
2023-02-15T12:49:11.589Z,53.63
2023-02-15T12:51:59.532Z,53.11
2023-02-15T12:54:41.804Z,53.13
2023-02-15T12:57:14.363Z,53.21
2023-02-15T12:59:54.668Z,52.93
2023-02-15T13:02:28.016Z,52.81
2023-02-15T13:04:56.435Z,52.29
2023-02-15T13:07:23.325Z,52.61
2023-02-15T13:09:50.925Z,51.91
2023-02-15T13:12:27.410Z,51.79
2023-02-15T13:14:55.891Z,52.05
2023-02-15T13:17:30.338Z,51.72
2023-02-15T13:20:01.650Z,51.55
2023-02-15T13:22:47.517Z,51.29
2023-02-15T13:25:23.634Z,51.43
2023-02-15T13:27:55.327Z,51.41
2023-02-15T13:30:25.843Z,50.48
2023-02-15T13:33:05.670Z,50.65
2023-02-15T13:35:59.130Z,51.01
2023-02-15T13:39:08.614Z,50.91
2023-02-15T13:41:48.967Z,50.89
2023-02-15T13:44:41.557Z,50.22
2023-02-15T13:47:29.177Z,50.17
2023-02-15T13:50:14.048Z,49.83
2023-02-15T13:52:48.482Z,49.55
2023-02-15T13:55:28.352Z,49.21
2023-02-15T13:58:03.766Z,48.63
2023-02-15T14:00:44.382Z,48.40
2023-02-15T14:03:43.175Z,48.15
2023-02-15T14:06:20.077Z,47.45
2023-02-15T14:09:01.589Z,46.62
2023-02-15T14:11:44.572Z,46.47
2023-02-15T14:14:33.795Z,46.11
2023-02-15T14:17:15.932Z,45.23
2023-02-15T14:19:50.672Z,44.66
2023-02-15T14:22:40.399Z,43.33
2023-02-15T14:25:31.480Z,43.45
2023-02-15T14:28:11.467Z,43.50
2023-02-15T14:30:45.752Z,43.51
2023-02-15T14:33:15.397Z,43.72
2023-02-15T14:35:43.786Z,43.31
2023-02-15T14:38:27.144Z,42.85
2023-02-15T14:41:10.278Z,42.62
2023-02-15T14:43:50.026Z,42.85
2023-02-15T14:46:52.005Z,43.28
2023-02-15T14:49:22.511Z,43.16
2023-02-15T14:51:50.668Z,43.65
2023-02-15T14:54:17.074Z,44.11
2023-02-15T14:56:45.243Z,44.40
2023-02-15T14:59:20.130Z,44.79
2023-02-15T15:02:17.912Z,45.19
2023-02-15T15:04:56.054Z,45.52
2023-02-15T15:07:42.463Z,45.88
2023-02-15T15:10:18.171Z,46.79
2023-02-15T15:12:50.103Z,47.48
2023-02-15T15:15:28.940Z,47.91
2023-02-15T15:18:05.139Z,48.23
2023-02-15T15:20:42.852Z,48.91
2023-02-15T15:23:15.398Z,49.24
2023-02-15T15:26:18.378Z,49.81
2023-02-15T15:28:44.690Z,50.39
2023-02-15T15:31:45.497Z,50.78
2023-02-15T15:34:33.517Z,51.21
2023-02-15T15:37:37.164Z,51.17
2023-02-15T15:40:34.654Z,51.70
2023-02-15T15:43:23.501Z,52.45
2023-02-15T15:46:01.868Z,52.38
2023-02-15T15:48:38.964Z,52.92
2023-02-15T15:51:28.549Z,53.42
2023-02-15T15:53:56.040Z,53.82
2023-02-15T15:56:28.988Z,53.74
2023-02-15T15:58:59.504Z,54.30
2023-02-15T16:01:29.842Z,54.68
2023-02-15T16:03:59.398Z,54.26
2023-02-15T16:06:30.691Z,55.34
2023-02-15T16:08:57.314Z,55.49
2023-02-15T16:11:30.254Z,55.95
2023-02-15T16:13:56.982Z,55.93
2023-02-15T16:16:28.894Z,55.99
2023-02-15T16:19:00.504Z,56.22
2023-02-15T16:21:34.352Z,56.51
2023-02-15T16:24:15.531Z,56.49
2023-02-15T16:27:00.466Z,56.63
2023-02-15T16:29:32.337Z,56.71
2023-02-15T16:32:29.109Z,57.21
2023-02-15T16:34:59.631Z,57.60
2023-02-15T16:37:35.729Z,57.66
2023-02-15T16:40:02.354Z,58.21
2023-02-15T16:42:28.906Z,59.09
2023-02-15T16:44:57.382Z,59.27
2023-02-15T16:47:29.762Z,59.05
2023-02-15T16:50:00.613Z,59.14
2023-02-15T16:52:28.756Z,59.07
2023-02-15T16:54:59.891Z,59.09
2023-02-15T16:57:31.761Z,58.50
2023-02-15T17:00:04.175Z,59.17
2023-02-15T17:02:54.374Z,59.26
2023-02-15T17:05:21.011Z,59.56
2023-02-15T17:08:07.687Z,60.01
2023-02-15T17:10:38.271Z,60.12
2023-02-15T17:13:11.567Z,60.57
2023-02-15T17:15:43.303Z,61.12
2023-02-15T17:18:24.297Z,60.58
2023-02-15T17:20:52.764Z,60.69
2023-02-15T17:23:36.021Z,60.64
2023-02-15T17:26:33.573Z,60.90
2023-02-15T17:29:03.682Z,61.77
2023-02-15T17:31:34.065Z,61.35
2023-02-15T17:34:02.257Z,61.51
2023-02-15T17:36:31.569Z,61.29
2023-02-15T17:38:57.922Z,61.60
2023-02-15T17:41:25.882Z,61.75
2023-02-15T17:43:52.370Z,61.82
2023-02-15T17:46:24.635Z,62.03
2023-02-15T17:48:53.748Z,62.06
2023-02-15T17:51:20.844Z,61.94
2023-02-15T17:54:06.437Z,62.02
2023-02-15T17:56:33.989Z,62.24
2023-02-15T17:59:00.340Z,62.06
2023-02-15T18:01:45.369Z,61.85
2023-02-15T18:04:32.504Z,62.53
2023-02-15T18:07:18.042Z,62.63
2023-02-15T18:10:03.212Z,63.28
2023-02-15T18:12:32.300Z,63.54
2023-02-15T18:14:59.557Z,64.36
2023-02-15T18:17:42.784Z,64.25
2023-02-15T18:20:18.516Z,63.96
2023-02-15T18:22:48.723Z,63.84
2023-02-15T18:25:19.486Z,63.91
2023-02-15T18:27:46.263Z,64.09
2023-02-15T18:30:21.458Z,64.15
2023-02-15T18:32:51.251Z,64.14
2023-02-15T18:35:24.390Z,64.63
2023-02-15T18:37:53.475Z,64.99
2023-02-15T18:40:22.317Z,65.39
2023-02-15T18:42:49.127Z,65.07
2023-02-15T18:45:28.483Z,65.44
2023-02-15T18:47:57.722Z,65.49
2023-02-15T18:50:27.179Z,65.26
2023-02-15T18:52:53.701Z,65.34
2023-02-15T18:55:25.190Z,65.72
2023-02-15T18:57:53.339Z,65.96
2023-02-15T19:00:32.405Z,66.18
2023-02-15T19:02:59.977Z,65.48
2023-02-15T19:05:28.304Z,65.88
2023-02-15T19:07:56.026Z,66.47
2023-02-15T19:10:25.566Z,66.46
2023-02-15T19:12:53.692Z,66.81
2023-02-15T19:15:25.755Z,66.48
2023-02-15T19:17:53.434Z,66.57
2023-02-15T19:20:26.558Z,66.68
2023-02-15T19:22:55.560Z,66.88
2023-02-15T19:25:28.827Z,66.90
2023-02-15T19:27:56.306Z,67.17
2023-02-15T19:30:27.786Z,67.10
2023-02-15T19:32:54.290Z,67.47
2023-02-15T19:35:23.604Z,67.29
2023-02-15T19:37:52.921Z,67.33
2023-02-15T19:40:21.491Z,67.44
2023-02-15T19:42:48.481Z,67.56
2023-02-15T19:45:19.960Z,68.07
2023-02-15T19:47:48.178Z,67.57
2023-02-15T19:50:19.808Z,68.22
2023-02-15T19:52:47.076Z,68.46
2023-02-15T19:55:25.307Z,68.84
2023-02-15T19:57:53.454Z,68.74
2023-02-15T20:00:22.947Z,68.57
2023-02-15T20:02:49.440Z,68.61
2023-02-15T20:05:16.263Z,68.46
2023-02-15T20:07:45.552Z,69.10
2023-02-15T20:10:17.957Z,69.51
2023-02-15T20:12:44.877Z,69.58
2023-02-15T20:15:24.693Z,69.22
2023-02-15T20:17:52.432Z,69.08
2023-02-15T20:20:19.932Z,69.65
2023-02-15T20:22:49.636Z,69.49
2023-02-15T20:25:21.067Z,69.74
2023-02-15T20:27:47.742Z,69.81
2023-02-15T20:30:16.797Z,69.96
2023-02-15T20:32:43.523Z,70.44
2023-02-15T20:35:15.044Z,70.35
2023-02-15T20:37:41.801Z,70.67
2023-02-15T20:40:24.082Z,71.05
2023-02-15T20:42:50.834Z,70.74
2023-02-15T20:45:25.005Z,70.71
2023-02-15T20:47:52.175Z,70.97
2023-02-15T20:50:31.129Z,71.00
2023-02-15T20:52:59.244Z,70.92
2023-02-15T20:55:30.682Z,71.15
2023-02-15T20:57:58.690Z,71.04
2023-02-15T21:00:28.478Z,70.89
2023-02-15T21:02:58.017Z,70.69
2023-02-15T21:05:33.353Z,71.00
2023-02-15T21:08:02.042Z,71.61
2023-02-15T21:10:31.661Z,71.46
2023-02-15T21:13:01.340Z,71.53
2023-02-15T21:15:32.830Z,71.00
2023-02-15T21:18:04.659Z,70.64
2023-02-15T21:20:32.850Z,70.66
2023-02-15T21:23:03.077Z,71.17
2023-02-15T21:25:35.761Z,70.82
2023-02-15T21:28:02.607Z,71.44
2023-02-15T21:30:29.522Z,71.30
2023-02-15T21:32:55.919Z,71.62
2023-02-15T21:35:22.375Z,71.80
2023-02-15T21:37:51.245Z,71.84
2023-02-15T21:40:27.985Z,71.62
2023-02-15T21:43:13.537Z,71.78
2023-02-15T21:45:59.026Z,72.26
2023-02-15T21:48:25.426Z,72.25
2023-02-15T21:51:10.325Z,72.52
2023-02-15T21:53:42.689Z,72.47
2023-02-15T21:56:17.689Z,72.93
2023-02-15T21:58:44.894Z,72.63
2023-02-15T22:01:26.583Z,72.78
2023-02-15T22:03:55.949Z,72.87
2023-02-15T22:06:22.548Z,72.80
2023-02-15T22:08:49.209Z,72.60
2023-02-15T22:11:18.386Z,72.34
2023-02-15T22:13:45.619Z,72.87
2023-02-15T22:16:23.203Z,72.86
2023-02-15T22:18:49.661Z,72.95
2023-02-15T22:21:16.676Z,73.06
2023-02-15T22:23:43.765Z,73.39
2023-02-15T22:26:26.240Z,73.00
2023-02-15T22:28:52.831Z,73.44
2023-02-15T22:31:21.455Z,73.39
2023-02-15T22:33:51.191Z,73.63
2023-02-15T22:36:29.966Z,73.42
2023-02-15T22:38:57.161Z,73.53
2023-02-15T22:41:27.306Z,73.67
2023-02-15T22:43:53.707Z,73.88
2023-02-15T22:46:24.058Z,74.30
2023-02-15T22:48:51.960Z,74.64
2023-02-15T22:51:21.586Z,74.43
2023-02-15T22:53:52.332Z,75.16
2023-02-15T22:56:31.450Z,74.73
2023-02-15T22:59:01.936Z,74.35
2023-02-15T23:01:32.187Z,74.38
2023-02-15T23:04:00.601Z,74.90
2023-02-15T23:06:29.127Z,75.16
2023-02-15T23:08:55.500Z,74.86
2023-02-15T23:11:21.923Z,74.54
2023-02-15T23:13:49.846Z,74.97
2023-02-15T23:16:18.340Z,75.25
2023-02-15T23:18:47.298Z,75.17
2023-02-15T23:21:20.702Z,75.15
2023-02-15T23:23:50.766Z,75.26
2023-02-15T23:26:19.978Z,75.21
2023-02-15T23:28:47.845Z,75.53
2023-02-15T23:31:24.748Z,75.51
2023-02-15T23:33:52.888Z,75.21
2023-02-15T23:36:39.795Z,75.15
2023-02-15T23:39:37.571Z,75.40
2023-02-15T23:42:09.944Z,75.18
2023-02-15T23:44:37.373Z,75.17
2023-02-15T23:47:04.795Z,75.34
2023-02-15T23:49:31.211Z,75.34
2023-02-15T23:51:58.255Z,75.42
2023-02-15T23:54:26.350Z,75.63
2023-02-15T23:56:55.751Z,75.72
2023-02-15T23:59:25.404Z,75.72
